createdAt,value
2019-06-26T00:01:09.823Z,99.90
2019-06-26T00:03:41.537Z,99.90
2019-06-26T00:06:13.634Z,99.90
2019-06-26T00:08:45.262Z,99.90
2019-06-26T00:11:16.662Z,99.90
2019-06-26T00:13:48.231Z,99.90
2019-06-26T00:16:19.850Z,99.90
2019-06-26T00:18:51.695Z,99.90
2019-06-26T00:21:23.480Z,99.90
2019-06-26T00:24:05.972Z,99.90
2019-06-26T00:26:37.915Z,99.90
2019-06-26T00:29:09.305Z,99.90
2019-06-26T00:31:41.192Z,99.90
2019-06-26T00:34:13.115Z,99.90
2019-06-26T00:36:45.268Z,99.90
2019-06-26T00:39:34.400Z,99.90
2019-06-26T00:42:05.836Z,99.90
2019-06-26T00:44:37.285Z,99.90
2019-06-26T00:47:10.168Z,99.90
2019-06-26T00:49:41.635Z,99.90
2019-06-26T00:52:13.472Z,99.90
2019-06-26T00:54:45.578Z,99.90
2019-06-26T00:57:17.126Z,99.90
2019-06-26T00:59:54.417Z,99.90
2019-06-26T01:02:26.446Z,99.90
2019-06-26T01:04:59.847Z,99.90
2019-06-26T01:07:33.421Z,99.90
2019-06-26T01:10:04.913Z,99.90
2019-06-26T01:12:36.566Z,99.90
2019-06-26T01:15:10.933Z,99.90
2019-06-26T01:17:43.057Z,99.90
2019-06-26T01:20:14.692Z,99.90
2019-06-26T01:22:46.356Z,99.90
2019-06-26T01:25:17.717Z,99.90
2019-06-26T01:27:49.061Z,99.90
2019-06-26T01:30:21.280Z,99.90
2019-06-26T01:32:52.634Z,99.90
2019-06-26T01:35:24.320Z,99.90
2019-06-26T01:37:57.188Z,99.90
2019-06-26T01:40:28.574Z,99.90
2019-06-26T01:42:59.992Z,99.90
2019-06-26T01:45:31.422Z,99.90
2019-06-26T01:48:03.383Z,99.90
2019-06-26T01:50:34.733Z,99.90
2019-06-26T01:53:06.441Z,99.90
2019-06-26T01:55:37.855Z,99.90
2019-06-26T01:58:09.898Z,99.90
2019-06-26T02:00:47.329Z,99.90
2019-06-26T02:03:19.571Z,99.90
2019-06-26T02:05:51.135Z,99.90
2019-06-26T02:08:23.198Z,99.90
2019-06-26T02:10:54.536Z,99.90
2019-06-26T02:13:27.978Z,99.90
2019-06-26T02:15:59.444Z,99.90
2019-06-26T02:18:44.078Z,99.90
2019-06-26T02:21:15.582Z,99.90
2019-06-26T02:23:46.948Z,99.90
2019-06-26T02:26:18.781Z,99.90
2019-06-26T02:28:51.505Z,99.90
2019-06-26T02:31:22.974Z,99.90
2019-06-26T02:33:54.596Z,99.90
2019-06-26T02:36:27.151Z,99.90
2019-06-26T02:38:58.855Z,99.90
2019-06-26T02:41:30.994Z,99.90
2019-06-26T02:44:04.399Z,99.90
2019-06-26T02:46:37.339Z,99.90
2019-06-26T02:49:08.632Z,99.90
2019-06-26T02:51:39.980Z,99.90
2019-06-26T02:54:11.322Z,99.90
2019-06-26T02:56:42.688Z,99.90
2019-06-26T02:59:14.022Z,99.90
2019-06-26T03:01:46.998Z,99.90
2019-06-26T03:04:18.736Z,99.90
2019-06-26T03:06:51.399Z,99.90
2019-06-26T03:09:23.285Z,99.90
2019-06-26T03:11:54.617Z,99.90
2019-06-26T03:14:27.223Z,99.90
2019-06-26T03:16:58.642Z,99.90
2019-06-26T03:19:30.814Z,99.90
2019-06-26T03:22:02.508Z,99.90
2019-06-26T03:24:33.960Z,99.90
2019-06-26T03:27:08.849Z,99.90
2019-06-26T03:29:38.425Z,99.90
2019-06-26T03:32:11.051Z,99.90
2019-06-26T03:34:43.019Z,99.90
2019-06-26T03:39:51.635Z,99.90
2019-06-26T03:42:23.104Z,99.90
2019-06-26T03:44:54.937Z,99.90
2019-06-26T03:47:28.001Z,99.90
2019-06-26T03:49:59.451Z,99.90
2019-06-26T03:52:48.698Z,99.90
2019-06-26T03:55:20.573Z,99.90
2019-06-26T03:57:54.513Z,99.90
2019-06-26T04:00:45.493Z,99.90
2019-06-26T04:03:17.519Z,99.90
2019-06-26T04:05:48.890Z,99.90
2019-06-26T04:08:20.951Z,99.90
2019-06-26T04:10:54.249Z,99.90
2019-06-26T04:13:25.769Z,99.20
2019-06-26T04:15:57.980Z,97.50
2019-06-26T04:18:29.999Z,97.60
2019-06-26T04:21:01.385Z,98.10
2019-06-26T04:23:33.584Z,95.70
2019-06-26T04:26:06.103Z,94.20
2019-06-26T04:28:39.692Z,92.90
2019-06-26T04:31:11.573Z,92.90
2019-06-26T04:33:43.147Z,92.40
2019-06-26T04:36:15.123Z,90.80
2019-06-26T04:38:47.240Z,87.80
2019-06-26T04:41:18.561Z,84.00
2019-06-26T04:43:50.367Z,81.90
2019-06-26T04:46:22.523Z,82.30
2019-06-26T04:48:55.723Z,83.90
2019-06-26T04:51:27.371Z,87.00
2019-06-26T04:53:59.194Z,89.60
2019-06-26T04:56:30.748Z,90.40
2019-06-26T04:59:02.042Z,91.20
2019-06-26T05:01:33.961Z,91.80
2019-06-26T05:04:05.830Z,92.10
2019-06-26T05:06:38.394Z,89.30
2019-06-26T05:09:10.802Z,83.30
2019-06-26T05:11:42.801Z,76.30
2019-06-26T05:14:14.216Z,72.90
2019-06-26T05:16:46.340Z,68.70
2019-06-26T05:19:18.923Z,66.00
2019-06-26T05:22:07.895Z,65.40
2019-06-26T05:24:39.289Z,67.10
2019-06-26T05:27:10.828Z,66.10
2019-06-26T05:29:42.959Z,64.20
2019-06-26T05:32:14.386Z,62.20
2019-06-26T05:34:45.995Z,61.70
2019-06-26T05:37:17.892Z,60.20
2019-06-26T05:39:49.948Z,59.60
2019-06-26T05:42:21.456Z,58.80
2019-06-26T05:44:53.023Z,59.00
2019-06-26T05:47:24.938Z,60.80
2019-06-26T05:49:57.775Z,60.60
2019-06-26T05:52:29.152Z,59.50
2019-06-26T05:55:02.302Z,60.80
2019-06-26T05:57:34.717Z,60.60
2019-06-26T06:00:07.251Z,60.50
2019-06-26T06:02:38.987Z,60.20
2019-06-26T06:05:11.421Z,60.80
2019-06-26T06:07:42.839Z,60.30
2019-06-26T06:10:15.967Z,61.40
2019-06-26T06:12:48.122Z,62.10
2019-06-26T06:15:21.392Z,60.40
2019-06-26T06:17:52.709Z,61.70
2019-06-26T06:20:31.545Z,62.90
2019-06-26T06:23:03.038Z,63.60
2019-06-26T06:25:35.310Z,63.90
2019-06-26T06:28:20.978Z,63.90
2019-06-26T06:30:53.604Z,64.30
2019-06-26T06:33:25.088Z,65.50
2019-06-26T06:35:56.477Z,64.90
2019-06-26T06:38:28.087Z,65.60
2019-06-26T06:40:59.486Z,66.60
2019-06-26T06:43:30.849Z,68.20
2019-06-26T06:46:19.677Z,70.50
2019-06-26T06:48:51.116Z,73.50
2019-06-26T06:51:22.933Z,75.80
2019-06-26T06:53:54.409Z,76.20
2019-06-26T06:56:25.937Z,77.10
2019-06-26T06:58:57.445Z,78.50
2019-06-26T07:01:28.965Z,80.70
2019-06-26T07:04:00.454Z,79.80
2019-06-26T07:06:31.932Z,80.50
2019-06-26T07:09:03.279Z,81.80
2019-06-26T07:11:35.201Z,82.90
2019-06-26T07:14:06.713Z,83.10
2019-06-26T07:16:39.482Z,83.50
2019-06-26T07:19:10.796Z,84.50
2019-06-26T07:21:42.187Z,85.50
2019-06-26T07:24:13.495Z,85.50
2019-06-26T07:26:44.930Z,86.80
2019-06-26T07:29:16.844Z,86.70
2019-06-26T07:31:48.150Z,86.70
2019-06-26T07:34:19.574Z,87.10
2019-06-26T07:36:51.146Z,87.30
2019-06-26T07:39:22.692Z,90.10
2019-06-26T07:41:54.011Z,87.40
2019-06-26T07:44:25.433Z,87.90
2019-06-26T07:46:56.766Z,90.10
2019-06-26T07:49:28.204Z,90.00
2019-06-26T07:51:59.821Z,90.10
2019-06-26T07:54:31.339Z,90.10
2019-06-26T07:57:02.752Z,90.40
2019-06-26T07:59:34.107Z,90.80
2019-06-26T08:02:23.185Z,90.40
2019-06-26T08:04:55.793Z,90.00
2019-06-26T08:07:27.073Z,90.20
2019-06-26T08:09:58.540Z,89.80
2019-06-26T08:12:30.084Z,90.00
2019-06-26T08:15:01.534Z,89.20
2019-06-26T08:17:33.485Z,90.30
2019-06-26T08:20:05.688Z,89.60
2019-06-26T08:22:37.146Z,90.20
2019-06-26T08:25:10.083Z,90.20
2019-06-26T08:27:41.426Z,90.40
2019-06-26T08:30:12.948Z,89.50
2019-06-26T08:32:44.264Z,90.30
2019-06-26T08:35:16.949Z,89.50
2019-06-26T08:37:48.296Z,88.80
2019-06-26T08:40:20.040Z,88.50
2019-06-26T08:42:51.356Z,88.20
2019-06-26T08:45:22.829Z,88.20
2019-06-26T08:47:54.154Z,86.00
2019-06-26T08:50:25.541Z,86.50
2019-06-26T08:52:56.872Z,86.60
2019-06-26T08:55:28.166Z,85.50
2019-06-26T08:57:59.672Z,86.70
2019-06-26T09:00:31.092Z,86.80
2019-06-26T09:03:03.064Z,86.30
2019-06-26T09:05:52.612Z,85.20
2019-06-26T09:08:24.086Z,85.60
2019-06-26T09:10:55.524Z,85.50
2019-06-26T09:13:26.891Z,85.90
2019-06-26T09:16:03.922Z,85.50
2019-06-26T09:23:49.607Z,82.70
2019-06-26T09:26:38.545Z,83.40
2019-06-26T09:29:09.962Z,82.30
2019-06-26T09:31:41.362Z,80.40
2019-06-26T09:34:12.726Z,81.80
2019-06-26T09:36:43.980Z,80.60
2019-06-26T09:39:16.983Z,81.20
2019-06-26T09:41:48.379Z,80.50
2019-06-26T09:44:19.651Z,80.40
2019-06-26T09:46:51.058Z,81.30
2019-06-26T09:52:01.262Z,82.60
2019-06-26T09:54:32.643Z,81.70
2019-06-26T09:57:03.955Z,81.50
2019-06-26T09:59:35.331Z,82.30
2019-06-26T10:02:06.672Z,82.00
2019-06-26T10:04:38.072Z,81.60
2019-06-26T10:07:09.321Z,81.30
2019-06-26T10:09:40.774Z,81.60
2019-06-26T10:12:12.101Z,81.50
2019-06-26T10:14:47.654Z,81.10
2019-06-26T10:17:16.343Z,80.20
2019-06-26T10:19:47.723Z,80.10
2019-06-26T10:22:21.983Z,80.20
2019-06-26T10:24:53.388Z,80.40
2019-06-26T10:27:24.712Z,80.20
2019-06-26T10:29:56.166Z,79.90
2019-06-26T10:32:27.431Z,79.90
2019-06-26T10:34:58.845Z,80.70
2019-06-26T10:37:35.970Z,79.40
2019-06-26T10:40:07.486Z,80.30
2019-06-26T10:42:38.819Z,79.50
2019-06-26T10:45:10.707Z,78.40
2019-06-26T10:47:42.126Z,78.80
2019-06-26T10:50:15.325Z,78.40
2019-06-26T10:52:46.635Z,78.70
2019-06-26T10:55:18.227Z,78.90
2019-06-26T10:57:49.536Z,79.30
2019-06-26T11:00:21.167Z,79.60
2019-06-26T11:02:52.561Z,79.50
2019-06-26T11:05:23.892Z,80.10
2019-06-26T11:07:55.311Z,78.70
2019-06-26T11:10:26.746Z,78.20
2019-06-26T11:12:58.239Z,78.80
2019-06-26T11:15:29.763Z,78.80
2019-06-26T11:18:01.196Z,77.80
2019-06-26T11:20:37.924Z,75.90
2019-06-26T11:23:09.470Z,78.60
2019-06-26T11:25:44.159Z,85.20
2019-06-26T11:28:13.871Z,90.80
2019-06-26T11:30:45.283Z,92.10
2019-06-26T11:33:16.625Z,92.70
2019-06-26T11:35:47.941Z,92.90
2019-06-26T11:38:19.411Z,94.00
2019-06-26T11:40:50.848Z,94.20
2019-06-26T11:43:22.213Z,94.30
2019-06-26T11:45:53.695Z,95.00
2019-06-26T11:48:25.161Z,95.20
2019-06-26T11:50:56.490Z,95.60
2019-06-26T11:53:28.606Z,96.20
2019-06-26T11:56:19.420Z,97.00
2019-06-26T11:58:52.755Z,97.80
2019-06-26T12:01:24.276Z,98.90
2019-06-26T12:03:55.686Z,99.90
2019-06-26T12:06:27.435Z,99.90
2019-06-26T12:09:00.074Z,99.90
2019-06-26T12:11:32.372Z,99.90
2019-06-26T12:14:03.771Z,99.90
2019-06-26T12:16:35.787Z,99.90
2019-06-26T12:19:07.250Z,99.90
2019-06-26T12:21:38.676Z,99.90
2019-06-26T12:24:10.317Z,99.90
2019-06-26T12:26:41.630Z,99.90
2019-06-26T12:29:12.987Z,99.90
2019-06-26T12:31:44.298Z,99.90
2019-06-26T12:34:15.711Z,99.90
2019-06-26T12:36:48.602Z,99.90
2019-06-26T12:39:20.007Z,99.90
2019-06-26T12:41:51.455Z,99.90
2019-06-26T12:44:22.935Z,99.90
2019-06-26T12:46:54.760Z,99.90
2019-06-26T12:49:26.963Z,99.90
2019-06-26T12:52:17.066Z,99.90
2019-06-26T12:54:48.565Z,99.90
2019-06-26T12:57:19.981Z,99.90
2019-06-26T12:59:57.302Z,99.90
2019-06-26T13:02:24.649Z,99.90
2019-06-26T13:04:56.148Z,99.90
2019-06-26T13:07:27.750Z,99.90
2019-06-26T13:09:59.965Z,99.90
2019-06-26T13:12:31.334Z,99.90
2019-06-26T13:15:04.635Z,99.90
2019-06-26T13:17:36.317Z,99.90
2019-06-26T13:20:12.766Z,99.90
2019-06-26T13:22:46.594Z,99.90
2019-06-26T13:25:18.546Z,99.90
2019-06-26T13:27:51.223Z,99.90
2019-06-26T13:30:32.508Z,99.90
2019-06-26T13:36:00.011Z,99.90
2019-06-26T13:38:32.191Z,99.90
2019-06-26T13:41:09.947Z,99.90
2019-06-26T13:43:42.224Z,99.90
2019-06-26T13:46:13.782Z,99.90
2019-06-26T13:48:45.762Z,99.90
2019-06-26T13:51:21.505Z,99.90
2019-06-26T13:53:53.268Z,99.90
2019-06-26T13:56:25.816Z,99.90
2019-06-26T13:58:57.689Z,99.90
2019-06-26T14:01:29.328Z,99.90
2019-06-26T14:04:01.874Z,99.90
2019-06-26T14:06:33.441Z,99.90
2019-06-26T14:09:06.868Z,99.90
2019-06-26T14:11:38.199Z,99.90
2019-06-26T14:14:09.822Z,99.90
2019-06-26T14:16:41.392Z,99.90
2019-06-26T14:19:12.876Z,99.90
2019-06-26T14:21:44.308Z,99.90
2019-06-26T14:24:21.724Z,99.90
2019-06-26T14:26:53.038Z,99.90
2019-06-26T14:29:25.691Z,99.90
2019-06-26T14:31:57.080Z,99.90
2019-06-26T14:34:29.877Z,99.90
2019-06-26T14:37:01.181Z,99.90
2019-06-26T14:39:34.098Z,99.90
2019-06-26T14:42:05.502Z,99.90
2019-06-26T14:44:37.155Z,99.90
2019-06-26T14:47:09.539Z,99.90
2019-06-26T14:49:41.459Z,99.90
2019-06-26T14:52:12.828Z,99.90
2019-06-26T14:54:44.225Z,99.90
2019-06-26T14:57:16.130Z,99.90
2019-06-26T14:59:47.465Z,99.90
2019-06-26T15:02:18.767Z,99.90
2019-06-26T15:04:50.126Z,99.90
2019-06-26T15:07:21.447Z,99.90
2019-06-26T15:09:53.880Z,99.90
2019-06-26T15:12:25.266Z,99.90
2019-06-26T15:15:00.055Z,99.90
2019-06-26T15:17:31.360Z,99.90
2019-06-26T15:20:03.964Z,99.90
2019-06-26T15:22:35.432Z,99.90
2019-06-26T15:25:07.315Z,99.90
2019-06-26T15:27:38.892Z,99.90
2019-06-26T15:30:10.536Z,99.90
2019-06-26T15:32:41.939Z,99.90
2019-06-26T15:35:16.040Z,99.90
2019-06-26T15:37:49.062Z,99.90
2019-06-26T15:40:20.537Z,99.90
2019-06-26T15:42:52.221Z,99.90
2019-06-26T15:45:23.662Z,99.90
2019-06-26T15:47:58.330Z,99.90
2019-06-26T15:50:29.755Z,99.90
2019-06-26T15:53:01.106Z,99.90
2019-06-26T15:55:32.778Z,99.90
2019-06-26T15:58:06.908Z,99.90
2019-06-26T16:00:43.631Z,99.90
2019-06-26T16:03:15.515Z,99.90
2019-06-26T16:05:46.895Z,99.90
2019-06-26T16:08:18.363Z,99.90
2019-06-26T16:10:49.765Z,99.90
2019-06-26T16:13:40.243Z,99.90
2019-06-26T16:16:12.767Z,99.90
2019-06-26T16:18:48.749Z,99.90
2019-06-26T16:21:20.244Z,99.90
2019-06-26T16:23:54.633Z,99.90
2019-06-26T16:26:26.169Z,99.90
2019-06-26T16:28:57.621Z,99.90
2019-06-26T16:31:30.876Z,99.90
2019-06-26T16:34:05.272Z,99.90
2019-06-26T16:36:42.482Z,99.90
2019-06-26T16:39:13.869Z,99.90
2019-06-26T16:41:48.769Z,99.90
2019-06-26T16:44:36.059Z,99.90
2019-06-26T16:47:11.937Z,99.90
2019-06-26T16:49:43.571Z,99.90
2019-06-26T16:52:15.018Z,99.90
2019-06-26T16:54:47.154Z,99.90
2019-06-26T16:57:18.530Z,99.90
2019-06-26T16:59:51.166Z,99.90
2019-06-26T17:02:23.894Z,99.90
2019-06-26T17:04:55.317Z,99.90
2019-06-26T17:07:28.527Z,99.90
2019-06-26T17:09:59.878Z,99.90
2019-06-26T17:12:32.970Z,99.90
2019-06-26T17:15:12.506Z,99.90
2019-06-26T17:18:01.406Z,99.90
2019-06-26T17:20:32.948Z,99.90
2019-06-26T17:23:06.922Z,99.90
2019-06-26T17:25:39.194Z,99.90
2019-06-26T17:28:10.673Z,99.90
2019-06-26T17:30:42.252Z,99.90
2019-06-26T17:33:17.408Z,99.90
2019-06-26T17:35:49.126Z,99.90
2019-06-26T17:38:20.547Z,99.90
2019-06-26T17:40:52.027Z,99.90
2019-06-26T17:43:24.816Z,99.90
2019-06-26T17:45:56.385Z,99.90
2019-06-26T17:48:27.841Z,99.90
2019-06-26T17:50:59.156Z,99.90
2019-06-26T17:53:33.310Z,99.90
2019-06-26T17:56:07.931Z,99.90
2019-06-26T17:58:39.482Z,99.90
2019-06-26T18:01:10.927Z,99.90
2019-06-26T18:03:48.169Z,99.90
2019-06-26T18:06:22.158Z,99.90
2019-06-26T18:08:54.089Z,99.90
2019-06-26T18:11:27.496Z,99.90
2019-06-26T18:13:59.592Z,99.90
2019-06-26T18:16:31.657Z,99.90
2019-06-26T18:19:04.345Z,99.90
2019-06-26T18:21:36.710Z,99.90
2019-06-26T18:24:09.103Z,99.90
2019-06-26T18:26:40.830Z,99.90
2019-06-26T18:29:12.253Z,99.90
2019-06-26T18:31:44.142Z,99.90
2019-06-26T18:34:15.507Z,99.90
2019-06-26T18:36:50.171Z,99.90
2019-06-26T18:39:26.659Z,99.90
2019-06-26T18:41:58.322Z,99.90
2019-06-26T18:44:29.738Z,99.90
2019-06-26T18:47:01.105Z,99.90
2019-06-26T18:49:32.803Z,99.90
2019-06-26T18:52:07.565Z,99.90
2019-06-26T18:54:37.482Z,99.90
2019-06-26T18:57:17.091Z,99.90
2019-06-26T18:59:45.262Z,99.90
2019-06-26T19:02:16.733Z,99.80
2019-06-26T19:04:48.118Z,99.90
2019-06-26T19:07:19.682Z,99.90
2019-06-26T19:09:51.031Z,99.90
2019-06-26T19:12:22.496Z,99.90
2019-06-26T19:14:53.875Z,99.90
2019-06-26T19:17:25.373Z,99.90
2019-06-26T19:19:59.615Z,99.90
2019-06-26T19:22:30.965Z,99.90
2019-06-26T19:25:02.345Z,99.90
2019-06-26T19:27:33.759Z,99.90
2019-06-26T19:30:06.111Z,99.90
2019-06-26T19:32:37.762Z,99.90
2019-06-26T19:35:26.916Z,99.90
2019-06-26T19:37:58.425Z,99.90
2019-06-26T19:40:29.758Z,99.90
2019-06-26T19:43:01.248Z,99.90
2019-06-26T19:45:32.553Z,99.90
2019-06-26T19:48:04.114Z,99.90
2019-06-26T19:50:35.517Z,99.90
2019-06-26T19:53:07.046Z,99.90
2019-06-26T19:55:39.643Z,99.90
2019-06-26T19:58:11.043Z,99.90
2019-06-26T20:00:42.416Z,99.90
2019-06-26T20:03:14.061Z,99.90
2019-06-26T20:05:45.502Z,99.90
2019-06-26T20:08:16.999Z,99.90
2019-06-26T20:10:48.569Z,99.90
2019-06-26T20:13:41.010Z,99.90
2019-06-26T20:16:13.130Z,99.90
2019-06-26T20:18:45.620Z,99.90
2019-06-26T20:21:17.032Z,99.90
2019-06-26T20:23:48.647Z,99.90
2019-06-26T20:26:25.555Z,99.90
2019-06-26T20:28:56.974Z,99.90
2019-06-26T20:31:28.413Z,99.90
2019-06-26T20:33:59.895Z,99.90
2019-06-26T20:36:31.645Z,99.90
2019-06-26T20:39:03.158Z,99.90
2019-06-26T20:41:36.268Z,99.90
2019-06-26T20:44:07.639Z,99.90
2019-06-26T20:46:39.010Z,99.90
2019-06-26T20:49:10.343Z,99.90
2019-06-26T20:51:41.736Z,99.90
2019-06-26T20:54:13.052Z,99.90
2019-06-26T20:56:44.552Z,99.90
2019-06-26T20:59:16.172Z,99.90
2019-06-26T21:01:49.464Z,99.90
2019-06-26T21:04:29.550Z,99.90
2019-06-26T21:07:03.496Z,99.90
2019-06-26T21:09:34.861Z,99.90
2019-06-26T21:12:06.620Z,99.90
2019-06-26T21:14:38.077Z,99.90
2019-06-26T21:17:11.240Z,99.90
2019-06-26T21:19:42.806Z,99.90
2019-06-26T21:22:14.260Z,99.90
2019-06-26T21:24:45.830Z,99.90
2019-06-26T21:27:18.414Z,99.90
2019-06-26T21:29:52.893Z,99.90
2019-06-26T21:32:24.240Z,99.90
2019-06-26T21:34:56.003Z,99.90
2019-06-26T21:37:27.737Z,99.90
2019-06-26T21:39:59.074Z,99.90
2019-06-26T21:42:30.429Z,99.90
2019-06-26T21:45:20.310Z,99.90
2019-06-26T21:47:51.658Z,99.90
2019-06-26T21:50:23.076Z,99.90
2019-06-26T21:52:55.017Z,99.90
2019-06-26T21:55:34.225Z,99.90
2019-06-26T21:58:18.468Z,99.90
2019-06-26T22:01:07.835Z,99.90
2019-06-26T22:03:56.788Z,99.90
2019-06-26T22:06:30.207Z,99.90
2019-06-26T22:09:12.020Z,99.90
2019-06-26T22:11:45.040Z,99.90
2019-06-26T22:14:28.372Z,99.90
2019-06-26T22:16:59.914Z,99.90
2019-06-26T22:19:32.503Z,99.90
2019-06-26T22:22:22.921Z,99.90
2019-06-26T22:24:54.491Z,99.90
2019-06-26T22:27:26.049Z,99.90
2019-06-26T22:30:15.234Z,99.90
2019-06-26T22:32:46.558Z,99.90
2019-06-26T22:35:18.200Z,99.90
2019-06-26T22:37:49.700Z,99.90
2019-06-26T22:40:21.456Z,99.90
2019-06-26T22:42:52.819Z,99.90
2019-06-26T22:45:24.289Z,99.90
2019-06-26T22:47:55.597Z,99.90
2019-06-26T22:50:26.938Z,99.90
2019-06-26T22:53:00.320Z,99.90
2019-06-26T22:55:31.767Z,99.90
2019-06-26T22:58:04.388Z,99.90
2019-06-26T23:00:35.881Z,99.90
2019-06-26T23:03:07.219Z,99.90
2019-06-26T23:05:38.644Z,99.90
2019-06-26T23:08:10.109Z,99.90
2019-06-26T23:10:41.628Z,99.90
2019-06-26T23:13:13.071Z,99.90
2019-06-26T23:15:44.513Z,99.90
2019-06-26T23:18:16.056Z,99.90
2019-06-26T23:20:47.624Z,99.90
2019-06-26T23:23:19.028Z,99.90
2019-06-26T23:25:50.680Z,99.90
2019-06-26T23:28:22.180Z,99.90
2019-06-26T23:30:53.654Z,99.90
2019-06-26T23:33:25.008Z,99.90
2019-06-26T23:35:56.772Z,99.90
2019-06-26T23:38:28.138Z,99.90
2019-06-26T23:40:59.512Z,99.90
2019-06-26T23:43:30.969Z,99.90
2019-06-26T23:46:02.450Z,99.90
2019-06-26T23:48:34.192Z,99.90
2019-06-26T23:51:05.679Z,99.90
2019-06-26T23:53:37.041Z,99.90
2019-06-26T23:56:39.579Z,99.90
2019-06-26T23:58:59.015Z,99.90
